createdAt,value
2022-08-07T00:04:47.547Z,16.79
2022-08-07T00:14:50.447Z,16.59
2022-08-07T00:24:51.913Z,16.50
2022-08-07T00:34:54.240Z,16.44
2022-08-07T00:44:55.529Z,16.30
2022-08-07T00:54:56.883Z,16.20
2022-08-07T01:04:59.191Z,16.09
2022-08-07T01:15:03.923Z,15.97
2022-08-07T01:25:40.603Z,15.83
2022-08-07T01:35:53.727Z,15.60
2022-08-07T01:45:48.492Z,15.53
2022-08-07T01:55:55.938Z,15.39
2022-08-07T02:06:00.021Z,15.15
2022-08-07T02:16:02.388Z,15.11
2022-08-07T02:26:30.759Z,15.02
2022-08-07T02:36:33.110Z,14.92
2022-08-07T02:46:36.710Z,14.83
2022-08-07T02:56:38.285Z,14.74
2022-08-07T03:06:41.413Z,14.67
2022-08-07T03:16:43.376Z,14.58
2022-08-07T03:26:58.333Z,14.59
2022-08-07T03:37:00.791Z,14.47
2022-08-07T03:47:14.718Z,14.46
2022-08-07T03:58:35.204Z,14.30
2022-08-07T04:07:42.755Z,14.22
2022-08-07T04:18:30.797Z,14.04
2022-08-07T04:28:08.248Z,14.02
2022-08-07T04:38:13.055Z,14.10
2022-08-07T04:48:14.967Z,14.28
2022-08-07T04:58:33.598Z,14.44
2022-08-07T05:09:00.025Z,14.57
2022-08-07T05:19:00.759Z,14.69
2022-08-07T05:29:04.129Z,14.91
2022-08-07T05:40:06.792Z,15.28
2022-08-07T05:49:27.064Z,15.60
2022-08-07T05:59:57.269Z,15.96
2022-08-07T06:10:05.325Z,16.27
2022-08-07T06:20:12.723Z,16.52
2022-08-07T06:30:35.699Z,16.70
2022-08-07T06:40:39.759Z,17.06
2022-08-07T06:50:47.626Z,17.12
2022-08-07T07:00:53.087Z,17.46
2022-08-07T07:10:56.861Z,17.79
2022-08-07T07:20:59.073Z,17.92
2022-08-07T07:31:00.419Z,18.20
2022-08-07T07:41:02.562Z,18.65
2022-08-07T07:51:07.690Z,18.86
2022-08-07T08:02:02.904Z,19.18
2022-08-07T08:11:59.365Z,19.60
2022-08-07T08:22:11.315Z,19.83
2022-08-07T08:32:18.725Z,20.27
2022-08-07T08:42:26.621Z,20.90
2022-08-07T08:52:30.344Z,21.07
2022-08-07T09:02:35.110Z,21.35
2022-08-07T09:12:38.681Z,21.90
2022-08-07T09:24:30.925Z,22.43
2022-08-07T09:33:05.506Z,22.47
2022-08-07T09:43:18.138Z,22.69
2022-08-07T09:53:20.229Z,23.22
2022-08-07T10:04:05.251Z,23.23
2022-08-07T10:14:01.399Z,23.80
2022-08-07T10:24:04.971Z,24.21
2022-08-07T10:34:18.158Z,24.47
2022-08-07T10:44:33.723Z,24.83
2022-08-07T10:54:39.532Z,25.52
2022-08-07T11:04:40.967Z,25.62
2022-08-07T11:14:59.648Z,25.44
2022-08-07T11:25:06.471Z,25.67
2022-08-07T11:35:09.263Z,25.46
2022-08-07T11:45:12.210Z,25.91
2022-08-07T11:56:09.196Z,25.95
2022-08-07T12:05:47.367Z,25.67
2022-08-07T12:16:06.553Z,25.84
2022-08-07T12:26:30.077Z,25.79
2022-08-07T12:36:33.526Z,26.21
2022-08-07T12:46:35.177Z,26.44
2022-08-07T12:56:39.565Z,26.47
2022-08-07T13:07:00.500Z,26.32
2022-08-07T13:17:02.535Z,26.38
2022-08-07T13:27:05.747Z,26.62
2022-08-07T13:37:10.920Z,26.72
2022-08-07T13:47:25.220Z,26.95
2022-08-07T13:57:26.874Z,26.84
2022-08-07T14:07:59.270Z,27.08
2022-08-07T14:18:27.489Z,27.36
2022-08-07T14:28:32.204Z,27.08
2022-08-07T14:38:50.458Z,27.11
2022-08-07T14:48:52.028Z,27.52
2022-08-07T15:30:04.795Z,27.43
2022-08-07T15:40:34.563Z,27.48
2022-08-07T15:50:37.620Z,27.40
2022-08-07T16:00:57.819Z,27.48
2022-08-07T16:10:59.148Z,27.53
2022-08-07T16:21:57.096Z,27.72
2022-08-07T16:31:51.564Z,27.84
2022-08-07T16:41:53.948Z,27.70
2022-08-07T16:52:35.335Z,27.49
2022-08-07T17:02:51.136Z,27.24
2022-08-07T17:12:44.685Z,27.47
2022-08-07T17:22:46.956Z,27.36
2022-08-07T17:32:52.482Z,27.08
2022-08-07T17:42:58.270Z,26.96
2022-08-07T17:53:01.731Z,26.75
2022-08-07T18:03:09.345Z,26.74
2022-08-07T18:13:11.021Z,26.20
2022-08-07T18:23:42.727Z,25.81
2022-08-07T18:33:38.896Z,25.20
2022-08-07T18:43:57.486Z,24.70
2022-08-07T18:53:59.374Z,24.30
2022-08-07T19:04:03.106Z,24.00
2022-08-07T19:14:11.547Z,23.67
2022-08-07T19:24:30.781Z,23.17
2022-08-07T19:34:36.116Z,22.97
2022-08-07T19:44:41.158Z,22.77
2022-08-07T19:54:45.134Z,22.61
2022-08-07T20:05:00.507Z,22.40
2022-08-07T20:15:03.601Z,22.21
2022-08-07T20:25:12.971Z,21.96
2022-08-07T20:35:26.399Z,21.77
2022-08-07T20:45:33.185Z,21.74
2022-08-07T20:55:50.175Z,21.47
2022-08-07T21:05:56.487Z,21.37
2022-08-07T21:16:00.751Z,21.27
2022-08-07T21:26:03.270Z,21.14
2022-08-07T21:36:12.072Z,20.85
2022-08-07T21:46:31.627Z,20.68
2022-08-07T21:56:37.710Z,20.47
2022-08-07T22:06:44.974Z,20.29
2022-08-07T22:16:47.787Z,20.00
2022-08-07T22:26:49.247Z,19.78
2022-08-07T22:36:52.691Z,19.25
2022-08-07T22:47:04.171Z,19.16
2022-08-07T22:57:07.905Z,19.09
2022-08-07T23:07:39.867Z,19.02
2022-08-07T23:17:32.933Z,18.75
2022-08-07T23:27:34.517Z,18.67
2022-08-07T23:37:36.154Z,18.61
2022-08-07T23:47:46.465Z,18.40
2022-08-07T23:57:49.411Z,18.16
